Ashland, MA

9:52 AM EDT on October 22, 2014 (GMT -0400)
Southborough south side | Change Station
CLOSE
Current Station
Personal Weather Station
Location: Southborough, MA
Elevation: 312 ft
Nearby Weather Stations
Active Advisory: Areal Flood Watch, Wind Advisory

Elev 312 ft 42.27 °N, 71.51 °W | Updated 8 minutes ago

Mostly Cloudy
Mostly Cloudy
52.3 °F
Feels Like 52.3 °F
N
2.2
Wind Variable Wind from East

Today
High -- | Low -- °F
--% Chance of Precip.
Yesterday
High -- | Low -- °F
Precip. -- in
7:06 AM 5:53 PM
Waning Crescent, 2% visible
Pressure 30.00 in
Visibility 1.8 miles
Clouds Overcast 700 ft
Dew Point 52 °F
Humidity 99%
Rainfall 0.18 in
Snow Depth Not available.
UV 1 out of 12
Pollen .30 out of 12
Air Quality Not available.
Flu Activity No Activity
SPECI KOWD 221334Z 04012G23KT 350V070 1 3/4SM -RA BR OVC007 13/12 A3000 RMK AO2 RAB16 P0001 T01280117

More Conditions Fewer Conditions

Pressure 30.00 in
Visibility 1.8 miles
Clouds Overcast 700 ft
Dew Point 52 °F
Humidity 99%
Rainfall 0.18 in
Snow Depth Not available.
UV 1 out of 12
Pollen .30 out of 12
Air Quality Not available.
Flu Activity No Activity
SPECI KOWD 221334Z 04012G23KT 350V070 1 3/4SM -RA BR OVC007 13/12 A3000 RMK AO2 RAB16 P0001 T01280117

More Conditions Fewer Conditions

10-Day Weather Forecast

Almanac

Astronomy

Oct. 22, 2014 Rise Set
Actual Time 7:06 AM EDT 5:53 PM EDT
Civil Twilight 6:38 AM EDT 6:21 PM EDT
Nautical Twilight 6:05 AM EDT 6:54 PM EDT
Astronomical Twilight 5:33 AM EDT 7:26 PM EDT
Moon 5:43 AM EDT 5:19 PM EDT
Length of Visible Light 11h 43m
Length of Day
10h 46m
Tomorrow will be 2m 41s shorter.
Waning Crescent, 2% of the Moon is Illuminated
Today
Waning Crescent
Oct 23
New
Oct 30
First Quarter
Nov 6
Full
Nov 14
Last Quarter

Today's Extremes

State Highs State Lows

Community

WunderPhotos

Upload Photos

1,763,919 photos uploaded!

Nearby

Air Quality

  Air Quality AQ Index Pollutant
Wednesday Good
PM2.5
Thursday Good
PM2.5

Snow Depth

Station Depth Elevation
No new snow has been reported.

Earthquake Activity

City Distance Mag. Time & Date
No recent earthquake activity has been reported nearby.
Minimum magnitude displayed is 2.5.

Coastal Water Temperatures

Place Temperature
Boston, MA 57.0 °F
Providence, RI 62.1 °F
Fall River, MA 63.0 °F
Conimicut Light, RI 61.0 °F

Nearby Weather Stations